sensor_id;sensor_type;location;lat;lon;timestamp;temperature;humidity
50570;DHT22;36525;49.398;7.614;2022-07-04T00:20:40;17.70;99.90
50570;DHT22;36525;49.398;7.614;2022-07-04T00:23:07;17.60;99.90
50570;DHT22;36525;49.398;7.614;2022-07-04T00:25:34;17.60;99.90
50570;DHT22;36525;49.398;7.614;2022-07-04T00:28:01;17.50;99.90
50570;DHT22;36525;49.398;7.614;2022-07-04T00:30:28;17.50;99.90
50570;DHT22;36525;49.398;7.614;2022-07-04T00:32:55;17.40;99.90
50570;DHT22;36525;49.398;7.614;2022-07-04T00:35:22;17.40;99.90
50570;DHT22;36525;49.398;7.614;2022-07-04T00:37:49;17.30;99.90
50570;DHT22;36525;49.398;7.614;2022-07-04T00:40:16;17.30;99.90
50570;DHT22;36525;49.398;7.614;2022-07-04T00:42:43;17.30;99.90
50570;DHT22;36525;49.398;7.614;2022-07-04T00:45:10;17.30;99.90
50570;DHT22;36525;49.398;7.614;2022-07-04T00:47:37;17.30;99.90
50570;DHT22;36525;49.398;7.614;2022-07-04T00:50:04;17.30;99.90
50570;DHT22;36525;49.398;7.614;2022-07-04T00:52:32;17.30;99.90
50570;DHT22;36525;49.398;7.614;2022-07-04T00:54:59;17.10;99.90
50570;DHT22;36525;49.398;7.614;2022-07-04T00:57:27;17.00;99.90
50570;DHT22;36525;49.398;7.614;2022-07-04T00:59:54;16.90;99.90
50570;DHT22;36525;49.398;7.614;2022-07-04T01:02:21;16.90;99.90
50570;DHT22;36525;49.398;7.614;2022-07-04T01:04:48;16.80;99.90
50570;DHT22;36525;49.398;7.614;2022-07-04T01:07:16;16.80;99.90
50570;DHT22;36525;49.398;7.614;2022-07-04T01:09:43;16.80;99.90
50570;DHT22;36525;49.398;7.614;2022-07-04T01:12:11;16.70;99.90
50570;DHT22;36525;49.398;7.614;2022-07-04T01:14:38;16.80;99.90
50570;DHT22;36525;49.398;7.614;2022-07-04T01:17:06;16.80;99.90
50570;DHT22;36525;49.398;7.614;2022-07-04T01:19:32;16.80;99.90
50570;DHT22;36525;49.398;7.614;2022-07-04T01:22:05;16.90;99.90
50570;DHT22;36525;49.398;7.614;2022-07-04T01:24:33;16.80;99.90
50570;DHT22;36525;49.398;7.614;2022-07-04T01:27:00;16.80;99.90
50570;DHT22;36525;49.398;7.614;2022-07-04T01:29:27;16.80;99.90
50570;DHT22;36525;49.398;7.614;2022-07-04T01:31:54;16.70;99.90
50570;DHT22;36525;49.398;7.614;2022-07-04T01:34:21;16.70;99.90
50570;DHT22;36525;49.398;7.614;2022-07-04T01:36:48;16.60;99.90
50570;DHT22;36525;49.398;7.614;2022-07-04T01:39:15;16.40;99.90
50570;DHT22;36525;49.398;7.614;2022-07-04T01:41:42;16.20;99.90
50570;DHT22;36525;49.398;7.614;2022-07-04T01:44:09;16.20;99.90
50570;DHT22;36525;49.398;7.614;2022-07-04T01:46:36;16.10;99.90
50570;DHT22;36525;49.398;7.614;2022-07-04T01:49:03;16.00;99.90
50570;DHT22;36525;49.398;7.614;2022-07-04T01:51:30;15.90;99.90
50570;DHT22;36525;49.398;7.614;2022-07-04T01:53:57;15.90;99.90
50570;DHT22;36525;49.398;7.614;2022-07-04T01:56:24;15.80;99.90
50570;DHT22;36525;49.398;7.614;2022-07-04T01:58:51;15.80;99.90
50570;DHT22;36525;49.398;7.614;2022-07-04T02:01:18;15.70;99.90
50570;DHT22;36525;49.398;7.614;2022-07-04T02:04:01;15.70;99.90
50570;DHT22;36525;49.398;7.614;2022-07-04T02:06:30;15.60;99.90
50570;DHT22;36525;49.398;7.614;2022-07-04T02:08:57;15.60;99.90
50570;DHT22;36525;49.398;7.614;2022-07-04T02:11:45;15.50;99.90
50570;DHT22;36525;49.398;7.614;2022-07-04T02:14:33;15.50;99.90
50570;DHT22;36525;49.398;7.614;2022-07-04T02:17:01;15.40;99.90
50570;DHT22;36525;49.398;7.614;2022-07-04T02:19:28;15.30;99.90
50570;DHT22;36525;49.398;7.614;2022-07-04T02:21:56;15.20;99.90
50570;DHT22;36525;49.398;7.614;2022-07-04T02:24:23;15.10;99.90
50570;DHT22;36525;49.398;7.614;2022-07-04T02:26:50;15.10;99.90
50570;DHT22;36525;49.398;7.614;2022-07-04T02:29:17;15.10;99.90
50570;DHT22;36525;49.398;7.614;2022-07-04T02:31:44;15.00;99.90
50570;DHT22;36525;49.398;7.614;2022-07-04T02:34:11;15.00;99.90
50570;DHT22;36525;49.398;7.614;2022-07-04T02:36:38;14.90;99.90
50570;DHT22;36525;49.398;7.614;2022-07-04T02:39:05;14.70;99.90
50570;DHT22;36525;49.398;7.614;2022-07-04T02:41:33;14.60;99.90
50570;DHT22;36525;49.398;7.614;2022-07-04T02:44:01;14.60;99.90
50570;DHT22;36525;49.398;7.614;2022-07-04T02:46:28;14.60;99.90
50570;DHT22;36525;49.398;7.614;2022-07-04T02:48:55;14.60;99.90
50570;DHT22;36525;49.398;7.614;2022-07-04T02:51:22;14.70;99.90
50570;DHT22;36525;49.398;7.614;2022-07-04T02:53:49;14.70;99.90
50570;DHT22;36525;49.398;7.614;2022-07-04T02:56:17;14.60;99.90
50570;DHT22;36525;49.398;7.614;2022-07-04T02:58:44;14.50;99.90
50570;DHT22;36525;49.398;7.614;2022-07-04T03:01:11;14.30;99.90
50570;DHT22;36525;49.398;7.614;2022-07-04T03:03:39;14.30;99.90
50570;DHT22;36525;49.398;7.614;2022-07-04T03:06:08;14.30;99.90
50570;DHT22;36525;49.398;7.614;2022-07-04T03:08:36;14.20;99.90
50570;DHT22;36525;49.398;7.614;2022-07-04T03:11:04;14.20;99.90
50570;DHT22;36525;49.398;7.614;2022-07-04T03:13:31;14.10;99.90
50570;DHT22;36525;49.398;7.614;2022-07-04T03:15:58;14.10;99.90
50570;DHT22;36525;49.398;7.614;2022-07-04T03:18:26;14.00;99.90
50570;DHT22;36525;49.398;7.614;2022-07-04T03:20:52;14.00;99.90
50570;DHT22;36525;49.398;7.614;2022-07-04T03:23:19;14.00;99.90
50570;DHT22;36525;49.398;7.614;2022-07-04T03:25:46;13.80;99.90
50570;DHT22;36525;49.398;7.614;2022-07-04T03:28:13;13.80;99.90
50570;DHT22;36525;49.398;7.614;2022-07-04T03:30:41;13.70;99.90
50570;DHT22;36525;49.398;7.614;2022-07-04T03:33:09;13.70;99.90
50570;DHT22;36525;49.398;7.614;2022-07-04T03:35:36;13.70;99.90
50570;DHT22;36525;49.398;7.614;2022-07-04T03:38:03;13.80;99.90
50570;DHT22;36525;49.398;7.614;2022-07-04T03:40:30;13.70;99.90
50570;DHT22;36525;49.398;7.614;2022-07-04T03:42:58;13.70;99.90
50570;DHT22;36525;49.398;7.614;2022-07-04T03:45:25;13.70;99.90
50570;DHT22;36525;49.398;7.614;2022-07-04T03:47:52;13.80;99.90
50570;DHT22;36525;49.398;7.614;2022-07-04T03:50:19;13.80;99.90
50570;DHT22;36525;49.398;7.614;2022-07-04T03:52:46;13.70;99.90
50570;DHT22;36525;49.398;7.614;2022-07-04T03:55:13;13.60;99.90
50570;DHT22;36525;49.398;7.614;2022-07-04T03:57:40;13.60;99.90
50570;DHT22;36525;49.398;7.614;2022-07-04T04:00:08;13.60;99.90
50570;DHT22;36525;49.398;7.614;2022-07-04T04:02:37;13.50;99.90
50570;DHT22;36525;49.398;7.614;2022-07-04T04:05:08;13.50;99.90
50570;DHT22;36525;49.398;7.614;2022-07-04T04:07:57;13.60;99.90
50570;DHT22;36525;49.398;7.614;2022-07-04T04:10:27;13.60;99.90
50570;DHT22;36525;49.398;7.614;2022-07-04T04:12:56;13.70;99.90
50570;DHT22;36525;49.398;7.614;2022-07-04T04:15:23;13.70;99.90
50570;DHT22;36525;49.398;7.614;2022-07-04T04:17:51;13.70;99.90
50570;DHT22;36525;49.398;7.614;2022-07-04T04:20:18;13.70;99.90
50570;DHT22;36525;49.398;7.614;2022-07-04T04:22:44;13.70;99.90
50570;DHT22;36525;49.398;7.614;2022-07-04T04:25:11;13.80;99.90
50570;DHT22;36525;49.398;7.614;2022-07-04T04:27:39;13.90;99.90
50570;DHT22;36525;49.398;7.614;2022-07-04T04:30:06;14.00;99.90
50570;DHT22;36525;49.398;7.614;2022-07-04T04:32:34;14.10;99.90
50570;DHT22;36525;49.398;7.614;2022-07-04T04:35:01;14.20;99.90
50570;DHT22;36525;49.398;7.614;2022-07-04T04:37:28;14.30;99.90
50570;DHT22;36525;49.398;7.614;2022-07-04T04:39:55;14.40;99.90
50570;DHT22;36525;49.398;7.614;2022-07-04T04:42:22;14.50;99.90
50570;DHT22;36525;49.398;7.614;2022-07-04T04:44:49;14.60;99.90
50570;DHT22;36525;49.398;7.614;2022-07-04T04:47:16;14.80;99.90
50570;DHT22;36525;49.398;7.614;2022-07-04T04:49:43;14.90;99.90
50570;DHT22;36525;49.398;7.614;2022-07-04T04:52:09;15.00;99.90
50570;DHT22;36525;49.398;7.614;2022-07-04T04:54:37;15.10;99.90
50570;DHT22;36525;49.398;7.614;2022-07-04T04:57:04;15.10;99.90
50570;DHT22;36525;49.398;7.614;2022-07-04T04:59:32;15.20;99.90
50570;DHT22;36525;49.398;7.614;2022-07-04T05:02:01;15.30;99.90
50570;DHT22;36525;49.398;7.614;2022-07-04T05:04:28;15.50;99.90
50570;DHT22;36525;49.398;7.614;2022-07-04T05:06:55;15.60;99.90
50570;DHT22;36525;49.398;7.614;2022-07-04T05:09:22;15.60;99.90
50570;DHT22;36525;49.398;7.614;2022-07-04T05:11:49;15.70;99.90
50570;DHT22;36525;49.398;7.614;2022-07-04T05:14:16;15.90;99.90
50570;DHT22;36525;49.398;7.614;2022-07-04T05:16:43;16.10;99.90
50570;DHT22;36525;49.398;7.614;2022-07-04T05:19:11;16.20;99.90
50570;DHT22;36525;49.398;7.614;2022-07-04T05:21:38;16.30;99.90
50570;DHT22;36525;49.398;7.614;2022-07-04T05:24:05;16.40;99.90
50570;DHT22;36525;49.398;7.614;2022-07-04T05:26:33;16.50;99.90
50570;DHT22;36525;49.398;7.614;2022-07-04T05:29:00;16.60;99.90
50570;DHT22;36525;49.398;7.614;2022-07-04T05:31:27;16.60;99.90
50570;DHT22;36525;49.398;7.614;2022-07-04T05:33:55;16.70;99.90
50570;DHT22;36525;49.398;7.614;2022-07-04T05:36:23;16.90;99.90
50570;DHT22;36525;49.398;7.614;2022-07-04T05:38:55;17.00;99.90
50570;DHT22;36525;49.398;7.614;2022-07-04T05:41:23;17.00;99.90
50570;DHT22;36525;49.398;7.614;2022-07-04T05:43:51;17.20;99.90
50570;DHT22;36525;49.398;7.614;2022-07-04T05:46:24;17.20;99.90
50570;DHT22;36525;49.398;7.614;2022-07-04T05:48:51;17.30;99.90
50570;DHT22;36525;49.398;7.614;2022-07-04T05:51:18;17.40;99.90
50570;DHT22;36525;49.398;7.614;2022-07-04T05:53:45;17.50;99.90
50570;DHT22;36525;49.398;7.614;2022-07-04T05:56:12;17.60;99.90
50570;DHT22;36525;49.398;7.614;2022-07-04T05:58:39;17.60;99.90
50570;DHT22;36525;49.398;7.614;2022-07-04T06:03:35;17.80;99.90
50570;DHT22;36525;49.398;7.614;2022-07-04T06:06:05;18.00;99.90
50570;DHT22;36525;49.398;7.614;2022-07-04T06:08:32;18.10;99.90
50570;DHT22;36525;49.398;7.614;2022-07-04T06:10:59;18.20;99.90
50570;DHT22;36525;49.398;7.614;2022-07-04T06:13:26;18.30;99.90
50570;DHT22;36525;49.398;7.614;2022-07-04T06:15:55;18.40;99.90
50570;DHT22;36525;49.398;7.614;2022-07-04T06:18:22;18.50;99.90
50570;DHT22;36525;49.398;7.614;2022-07-04T06:20:50;18.60;99.90
50570;DHT22;36525;49.398;7.614;2022-07-04T06:23:17;18.70;99.90
50570;DHT22;36525;49.398;7.614;2022-07-04T06:25:44;18.80;99.90
50570;DHT22;36525;49.398;7.614;2022-07-04T06:30:59;18.90;99.90
50570;DHT22;36525;49.398;7.614;2022-07-04T06:33:26;19.00;99.90
50570;DHT22;36525;49.398;7.614;2022-07-04T06:35:53;19.00;99.90
50570;DHT22;36525;49.398;7.614;2022-07-04T06:38:25;19.00;99.90
50570;DHT22;36525;49.398;7.614;2022-07-04T06:40:55;18.90;99.90
50570;DHT22;36525;49.398;7.614;2022-07-04T06:43:25;18.90;99.90
50570;DHT22;36525;49.398;7.614;2022-07-04T06:45:52;18.90;99.90
50570;DHT22;36525;49.398;7.614;2022-07-04T06:48:20;18.90;99.90
50570;DHT22;36525;49.398;7.614;2022-07-04T06:50:47;19.00;99.90
50570;DHT22;36525;49.398;7.614;2022-07-04T06:53:14;19.00;99.90
50570;DHT22;36525;49.398;7.614;2022-07-04T06:55:42;19.20;99.90
50570;DHT22;36525;49.398;7.614;2022-07-04T06:58:10;19.30;99.90
50570;DHT22;36525;49.398;7.614;2022-07-04T07:00:39;19.50;99.90
50570;DHT22;36525;49.398;7.614;2022-07-04T07:03:08;19.60;99.90
50570;DHT22;36525;49.398;7.614;2022-07-04T07:05:35;19.70;99.90
50570;DHT22;36525;49.398;7.614;2022-07-04T07:08:23;19.80;99.90
50570;DHT22;36525;49.398;7.614;2022-07-04T07:10:50;19.70;99.90
50570;DHT22;36525;49.398;7.614;2022-07-04T07:13:17;19.80;99.90
50570;DHT22;36525;49.398;7.614;2022-07-04T07:15:44;19.90;99.90
50570;DHT22;36525;49.398;7.614;2022-07-04T07:18:12;19.80;99.90
50570;DHT22;36525;49.398;7.614;2022-07-04T07:20:39;20.00;99.90
50570;DHT22;36525;49.398;7.614;2022-07-04T07:23:06;20.00;99.90
50570;DHT22;36525;49.398;7.614;2022-07-04T07:25:33;19.80;99.90
50570;DHT22;36525;49.398;7.614;2022-07-04T07:28:00;19.80;99.90
50570;DHT22;36525;49.398;7.614;2022-07-04T07:30:27;19.90;99.90
50570;DHT22;36525;49.398;7.614;2022-07-04T07:32:54;20.10;99.90
50570;DHT22;36525;49.398;7.614;2022-07-04T07:35:21;20.10;99.90
50570;DHT22;36525;49.398;7.614;2022-07-04T07:37:49;20.30;99.90
50570;DHT22;36525;49.398;7.614;2022-07-04T07:40:15;20.50;99.90
50570;DHT22;36525;49.398;7.614;2022-07-04T07:42:43;20.70;99.90
50570;DHT22;36525;49.398;7.614;2022-07-04T07:45:10;20.70;99.90
50570;DHT22;36525;49.398;7.614;2022-07-04T07:47:37;20.70;99.90
50570;DHT22;36525;49.398;7.614;2022-07-04T07:50:05;20.80;99.90
50570;DHT22;36525;49.398;7.614;2022-07-04T07:52:32;20.70;99.90
50570;DHT22;36525;49.398;7.614;2022-07-04T07:54:59;20.70;99.90
50570;DHT22;36525;49.398;7.614;2022-07-04T07:57:28;20.70;99.90
50570;DHT22;36525;49.398;7.614;2022-07-04T07:59:56;21.00;99.90
50570;DHT22;36525;49.398;7.614;2022-07-04T08:02:23;21.10;99.90
50570;DHT22;36525;49.398;7.614;2022-07-04T08:05:12;21.30;99.90
50570;DHT22;36525;49.398;7.614;2022-07-04T08:07:39;21.30;99.90
50570;DHT22;36525;49.398;7.614;2022-07-04T08:10:07;21.40;99.90
50570;DHT22;36525;49.398;7.614;2022-07-04T08:15:02;21.70;99.90
50570;DHT22;36525;49.398;7.614;2022-07-04T08:17:34;21.70;99.90
50570;DHT22;36525;49.398;7.614;2022-07-04T08:20:03;21.80;99.90
50570;DHT22;36525;49.398;7.614;2022-07-04T08:22:30;21.80;99.90
50570;DHT22;36525;49.398;7.614;2022-07-04T08:24:57;22.00;99.90
50570;DHT22;36525;49.398;7.614;2022-07-04T08:27:24;22.20;99.90
50570;DHT22;36525;49.398;7.614;2022-07-04T08:29:59;22.40;99.90
50570;DHT22;36525;49.398;7.614;2022-07-04T08:32:26;22.40;99.90
50570;DHT22;36525;49.398;7.614;2022-07-04T08:34:54;22.50;99.90
50570;DHT22;36525;49.398;7.614;2022-07-04T08:37:23;22.50;99.90
50570;DHT22;36525;49.398;7.614;2022-07-04T08:39:51;22.70;99.90
50570;DHT22;36525;49.398;7.614;2022-07-04T08:42:19;23.10;99.90
50570;DHT22;36525;49.398;7.614;2022-07-04T08:44:52;23.30;99.90
50570;DHT22;36525;49.398;7.614;2022-07-04T08:47:23;23.30;99.90
50570;DHT22;36525;49.398;7.614;2022-07-04T08:49:54;23.50;99.90
50570;DHT22;36525;49.398;7.614;2022-07-04T08:52:38;23.40;99.90
50570;DHT22;36525;49.398;7.614;2022-07-04T08:55:10;23.60;99.90
50570;DHT22;36525;49.398;7.614;2022-07-04T08:57:58;23.90;99.90
50570;DHT22;36525;49.398;7.614;2022-07-04T09:00:44;23.60;99.90
50570;DHT22;36525;49.398;7.614;2022-07-04T09:03:11;23.60;99.90
50570;DHT22;36525;49.398;7.614;2022-07-04T09:05:38;23.40;99.90
50570;DHT22;36525;49.398;7.614;2022-07-04T09:08:06;23.30;99.90
50570;DHT22;36525;49.398;7.614;2022-07-04T09:10:33;23.50;99.70
50570;DHT22;36525;49.398;7.614;2022-07-04T09:13:07;23.40;98.80
50570;DHT22;36525;49.398;7.614;2022-07-04T09:15:39;23.40;98.60
50570;DHT22;36525;49.398;7.614;2022-07-04T09:18:24;23.30;99.10
50570;DHT22;36525;49.398;7.614;2022-07-04T09:20:54;23.50;99.90
50570;DHT22;36525;49.398;7.614;2022-07-04T09:23:25;23.80;98.60
50570;DHT22;36525;49.398;7.614;2022-07-04T09:26:16;24.10;98.90
50570;DHT22;36525;49.398;7.614;2022-07-04T09:28:57;24.80;97.50
50570;DHT22;36525;49.398;7.614;2022-07-04T09:31:29;25.50;97.10
50570;DHT22;36525;49.398;7.614;2022-07-04T09:34:02;25.70;95.30
50570;DHT22;36525;49.398;7.614;2022-07-04T09:36:38;26.00;95.40
50570;DHT22;36525;49.398;7.614;2022-07-04T09:39:16;25.80;95.80
50570;DHT22;36525;49.398;7.614;2022-07-04T09:41:55;26.00;94.70
50570;DHT22;36525;49.398;7.614;2022-07-04T09:44:46;26.20;93.60
50570;DHT22;36525;49.398;7.614;2022-07-04T09:47:23;26.60;93.40
50570;DHT22;36525;49.398;7.614;2022-07-04T09:50:18;26.80;93.30
50570;DHT22;36525;49.398;7.614;2022-07-04T09:52:51;26.90;92.30
50570;DHT22;36525;49.398;7.614;2022-07-04T09:55:34;27.20;93.10
50570;DHT22;36525;49.398;7.614;2022-07-04T09:58:06;27.20;91.80
50570;DHT22;36525;49.398;7.614;2022-07-04T10:03:28;27.60;92.10
50570;DHT22;36525;49.398;7.614;2022-07-04T10:06:14;27.20;90.90
50570;DHT22;36525;49.398;7.614;2022-07-04T10:08:45;27.30;91.30
50570;DHT22;36525;49.398;7.614;2022-07-04T10:11:12;27.20;90.90
50570;DHT22;36525;49.398;7.614;2022-07-04T10:13:45;27.30;90.30
50570;DHT22;36525;49.398;7.614;2022-07-04T10:16:15;27.00;89.50
50570;DHT22;36525;49.398;7.614;2022-07-04T10:18:43;26.80;87.90
50570;DHT22;36525;49.398;7.614;2022-07-04T10:21:11;27.20;88.10
50570;DHT22;36525;49.398;7.614;2022-07-04T10:23:39;27.30;89.70
50570;DHT22;36525;49.398;7.614;2022-07-04T10:26:07;27.90;89.80
50570;DHT22;36525;49.398;7.614;2022-07-04T10:28:34;28.30;89.50
50570;DHT22;36525;49.398;7.614;2022-07-04T10:31:05;28.40;86.20
50570;DHT22;36525;49.398;7.614;2022-07-04T10:33:32;28.20;85.80
50570;DHT22;36525;49.398;7.614;2022-07-04T10:36:13;28.10;85.80
50570;DHT22;36525;49.398;7.614;2022-07-04T10:38:58;28.50;88.20
50570;DHT22;36525;49.398;7.614;2022-07-04T10:41:31;28.90;85.10
50570;DHT22;36525;49.398;7.614;2022-07-04T10:44:05;28.90;84.10
50570;DHT22;36525;49.398;7.614;2022-07-04T10:49:21;28.40;81.90
50570;DHT22;36525;49.398;7.614;2022-07-04T10:51:56;28.40;79.20
50570;DHT22;36525;49.398;7.614;2022-07-04T10:54:37;28.40;80.10
50570;DHT22;36525;49.398;7.614;2022-07-04T10:59:44;28.40;81.50
50570;DHT22;36525;49.398;7.614;2022-07-04T11:02:33;28.90;80.50
50570;DHT22;36525;49.398;7.614;2022-07-04T11:17:59;28.90;80.80
50570;DHT22;36525;49.398;7.614;2022-07-04T11:20:29;29.00;80.30
50570;DHT22;36525;49.398;7.614;2022-07-04T11:23:14;28.70;79.40
50570;DHT22;36525;49.398;7.614;2022-07-04T11:25:44;28.50;79.90
50570;DHT22;36525;49.398;7.614;2022-07-04T11:28:27;28.90;80.00
50570;DHT22;36525;49.398;7.614;2022-07-04T11:31:13;29.20;78.90
50570;DHT22;36525;49.398;7.614;2022-07-04T11:33:42;29.50;79.70
50570;DHT22;36525;49.398;7.614;2022-07-04T11:36:18;29.20;78.10
50570;DHT22;36525;49.398;7.614;2022-07-04T11:38:59;28.90;79.90
50570;DHT22;36525;49.398;7.614;2022-07-04T11:41:31;28.70;80.30
50570;DHT22;36525;49.398;7.614;2022-07-04T11:44:34;28.70;78.90
50570;DHT22;36525;49.398;7.614;2022-07-04T11:47:36;28.70;81.40
50570;DHT22;36525;49.398;7.614;2022-07-04T11:50:09;28.90;79.40
50570;DHT22;36525;49.398;7.614;2022-07-04T11:55:24;29.20;82.30
50570;DHT22;36525;49.398;7.614;2022-07-04T11:57:52;30.20;78.90
50570;DHT22;36525;49.398;7.614;2022-07-04T12:00:26;31.10;80.70
50570;DHT22;36525;49.398;7.614;2022-07-04T12:02:59;31.90;80.50
50570;DHT22;36525;49.398;7.614;2022-07-04T12:05:27;32.10;79.30
50570;DHT22;36525;49.398;7.614;2022-07-04T12:07:55;31.30;76.70
50570;DHT22;36525;49.398;7.614;2022-07-04T12:10:42;30.80;76.80
50570;DHT22;36525;49.398;7.614;2022-07-04T12:13:14;30.10;76.20
50570;DHT22;36525;49.398;7.614;2022-07-04T12:15:46;29.80;76.20
50570;DHT22;36525;49.398;7.614;2022-07-04T12:18:19;29.80;75.90
50570;DHT22;36525;49.398;7.614;2022-07-04T12:20:47;29.70;75.80
50570;DHT22;36525;49.398;7.614;2022-07-04T12:23:16;29.60;75.90
50570;DHT22;36525;49.398;7.614;2022-07-04T12:25:47;29.40;76.20
50570;DHT22;36525;49.398;7.614;2022-07-04T12:28:17;29.70;76.80
50570;DHT22;36525;49.398;7.614;2022-07-04T12:30:58;30.20;76.10
50570;DHT22;36525;49.398;7.614;2022-07-04T12:33:28;31.00;76.90
50570;DHT22;36525;49.398;7.614;2022-07-04T12:36:01;31.20;74.80
50570;DHT22;36525;49.398;7.614;2022-07-04T12:46:11;31.20;74.50
50570;DHT22;36525;49.398;7.614;2022-07-04T12:48:41;31.30;73.20
50570;DHT22;36525;49.398;7.614;2022-07-04T12:51:19;31.30;73.00
50570;DHT22;36525;49.398;7.614;2022-07-04T12:53:49;31.70;73.30
50570;DHT22;36525;49.398;7.614;2022-07-04T12:56:34;32.40;73.80
50570;DHT22;36525;49.398;7.614;2022-07-04T12:59:10;32.60;69.70
50570;DHT22;36525;49.398;7.614;2022-07-04T13:01:40;32.70;70.40
50570;DHT22;36525;49.398;7.614;2022-07-04T13:04:09;32.80;69.50
50570;DHT22;36525;49.398;7.614;2022-07-04T13:06:37;33.20;69.00
50570;DHT22;36525;49.398;7.614;2022-07-04T13:09:08;32.60;70.40
50570;DHT22;36525;49.398;7.614;2022-07-04T13:11:36;32.80;69.60
50570;DHT22;36525;49.398;7.614;2022-07-04T13:14:22;33.40;68.10
50570;DHT22;36525;49.398;7.614;2022-07-04T13:16:49;33.70;69.10
50570;DHT22;36525;49.398;7.614;2022-07-04T13:19:16;33.40;69.10
50570;DHT22;36525;49.398;7.614;2022-07-04T13:21:44;33.10;68.30
50570;DHT22;36525;49.398;7.614;2022-07-04T13:24:13;33.10;68.20
50570;DHT22;36525;49.398;7.614;2022-07-04T13:26:40;33.10;66.20
50570;DHT22;36525;49.398;7.614;2022-07-04T13:29:07;32.90;68.30
50570;DHT22;36525;49.398;7.614;2022-07-04T13:31:38;33.20;70.00
50570;DHT22;36525;49.398;7.614;2022-07-04T13:34:06;33.30;68.30
50570;DHT22;36525;49.398;7.614;2022-07-04T13:36:32;33.20;65.50
50570;DHT22;36525;49.398;7.614;2022-07-04T13:38:59;32.60;67.30
50570;DHT22;36525;49.398;7.614;2022-07-04T13:41:33;32.60;66.60
50570;DHT22;36525;49.398;7.614;2022-07-04T13:44:02;32.70;66.40
50570;DHT22;36525;49.398;7.614;2022-07-04T13:46:32;33.10;64.80
50570;DHT22;36525;49.398;7.614;2022-07-04T13:49:06;33.00;65.20
50570;DHT22;36525;49.398;7.614;2022-07-04T13:51:42;33.30;64.10
50570;DHT22;36525;49.398;7.614;2022-07-04T13:54:09;33.40;62.80
50570;DHT22;36525;49.398;7.614;2022-07-04T13:56:37;33.80;65.50
50570;DHT22;36525;49.398;7.614;2022-07-04T13:59:04;33.70;63.80
50570;DHT22;36525;49.398;7.614;2022-07-04T14:01:31;33.50;64.10
50570;DHT22;36525;49.398;7.614;2022-07-04T14:03:58;34.10;65.10
50570;DHT22;36525;49.398;7.614;2022-07-04T14:06:25;34.40;64.40
50570;DHT22;36525;49.398;7.614;2022-07-04T14:08:52;34.60;62.30
50570;DHT22;36525;49.398;7.614;2022-07-04T14:11:19;34.60;61.10
50570;DHT22;36525;49.398;7.614;2022-07-04T14:13:46;34.50;59.30
50570;DHT22;36525;49.398;7.614;2022-07-04T14:16:14;34.20;58.80
50570;DHT22;36525;49.398;7.614;2022-07-04T14:18:41;34.40;59.60
50570;DHT22;36525;49.398;7.614;2022-07-04T14:21:09;35.00;62.40
50570;DHT22;36525;49.398;7.614;2022-07-04T14:23:36;35.70;60.30
50570;DHT22;36525;49.398;7.614;2022-07-04T14:26:10;35.80;58.40
50570;DHT22;36525;49.398;7.614;2022-07-04T14:28:40;35.60;59.50
50570;DHT22;36525;49.398;7.614;2022-07-04T14:31:07;35.20;58.90
50570;DHT22;36525;49.398;7.614;2022-07-04T14:33:34;33.70;59.50
50570;DHT22;36525;49.398;7.614;2022-07-04T14:36:05;33.40;60.10
50570;DHT22;36525;49.398;7.614;2022-07-04T14:38:34;33.10;61.20
50570;DHT22;36525;49.398;7.614;2022-07-04T14:41:02;32.90;61.80
50570;DHT22;36525;49.398;7.614;2022-07-04T14:43:45;33.60;60.30
50570;DHT22;36525;49.398;7.614;2022-07-04T14:46:12;34.70;60.60
50570;DHT22;36525;49.398;7.614;2022-07-04T14:48:39;35.20;61.90
50570;DHT22;36525;49.398;7.614;2022-07-04T14:51:06;35.60;58.00
50570;DHT22;36525;49.398;7.614;2022-07-04T14:53:34;35.40;58.30
50570;DHT22;36525;49.398;7.614;2022-07-04T14:56:01;35.90;60.10
50570;DHT22;36525;49.398;7.614;2022-07-04T15:00:56;38.00;59.00
50570;DHT22;36525;49.398;7.614;2022-07-04T15:03:23;38.30;57.80
50570;DHT22;36525;49.398;7.614;2022-07-04T15:05:51;37.80;56.50
50570;DHT22;36525;49.398;7.614;2022-07-04T15:08:18;37.20;58.00
50570;DHT22;36525;49.398;7.614;2022-07-04T15:10:45;37.40;59.10
50570;DHT22;36525;49.398;7.614;2022-07-04T15:13:28;37.20;57.20
50570;DHT22;36525;49.398;7.614;2022-07-04T15:15:55;37.60;58.40
50570;DHT22;36525;49.398;7.614;2022-07-04T15:18:43;38.50;59.30
50570;DHT22;36525;49.398;7.614;2022-07-04T15:21:10;39.60;57.50
50570;DHT22;36525;49.398;7.614;2022-07-04T15:23:56;39.50;56.30
50570;DHT22;36525;49.398;7.614;2022-07-04T15:26:43;38.30;55.80
50570;DHT22;36525;49.398;7.614;2022-07-04T15:29:19;37.10;56.70
50570;DHT22;36525;49.398;7.614;2022-07-04T15:31:48;36.10;57.00
50570;DHT22;36525;49.398;7.614;2022-07-04T15:34:17;36.00;56.60
50570;DHT22;36525;49.398;7.614;2022-07-04T15:36:45;36.20;55.70
50570;DHT22;36525;49.398;7.614;2022-07-04T15:39:14;36.50;55.70
50570;DHT22;36525;49.398;7.614;2022-07-04T15:41:42;36.80;55.00
50570;DHT22;36525;49.398;7.614;2022-07-04T15:44:11;37.60;56.30
50570;DHT22;36525;49.398;7.614;2022-07-04T15:46:38;38.30;56.80
50570;DHT22;36525;49.398;7.614;2022-07-04T15:49:27;38.50;55.50
50570;DHT22;36525;49.398;7.614;2022-07-04T15:51:53;38.40;55.00
50570;DHT22;36525;49.398;7.614;2022-07-04T15:54:21;38.40;55.40
50570;DHT22;36525;49.398;7.614;2022-07-04T15:56:48;38.20;54.80
50570;DHT22;36525;49.398;7.614;2022-07-04T15:59:15;38.20;55.30
50570;DHT22;36525;49.398;7.614;2022-07-04T16:01:42;37.50;54.70
50570;DHT22;36525;49.398;7.614;2022-07-04T16:04:10;36.60;55.10
50570;DHT22;36525;49.398;7.614;2022-07-04T16:06:37;35.20;55.40
50570;DHT22;36525;49.398;7.614;2022-07-04T16:09:07;34.30;57.20
50570;DHT22;36525;49.398;7.614;2022-07-04T16:11:34;33.30;57.00
50570;DHT22;36525;49.398;7.614;2022-07-04T16:14:01;32.30;60.30
50570;DHT22;36525;49.398;7.614;2022-07-04T16:16:29;31.90;59.60
50570;DHT22;36525;49.398;7.614;2022-07-04T16:18:57;31.60;59.70
50570;DHT22;36525;49.398;7.614;2022-07-04T16:21:25;31.80;59.30
50570;DHT22;36525;49.398;7.614;2022-07-04T16:23:52;31.90;59.10
50570;DHT22;36525;49.398;7.614;2022-07-04T16:26:20;31.90;60.50
50570;DHT22;36525;49.398;7.614;2022-07-04T16:28:47;32.20;59.10
50570;DHT22;36525;49.398;7.614;2022-07-04T16:31:14;32.80;58.60
50570;DHT22;36525;49.398;7.614;2022-07-04T16:33:41;32.20;60.00
50570;DHT22;36525;49.398;7.614;2022-07-04T16:36:08;31.60;60.60
50570;DHT22;36525;49.398;7.614;2022-07-04T16:38:35;31.50;60.10
50570;DHT22;36525;49.398;7.614;2022-07-04T16:41:02;31.60;59.10
50570;DHT22;36525;49.398;7.614;2022-07-04T16:43:29;31.50;59.60
50570;DHT22;36525;49.398;7.614;2022-07-04T16:45:58;31.80;59.20
50570;DHT22;36525;49.398;7.614;2022-07-04T16:48:25;32.20;59.00